Time;durP1;ratioP1;P1;durP2;ratioP2;P2;SDS_P1;SDS_P2;PMS_P1;PMS_P2;Temp;Humidity;BMP_temperature;BMP_pressure;BME280_temperature;BME280_humidity;BME280_pressure;Samples;Min_cycle;Max_cycle;Signal;HPM_P1;HPM_P2
2021/05/27 00:04:30;;;;;;;;;;;8.90;99.90;;;;;;10351767;28;20064;-81
2021/05/27 00:09:32;;;;;;;;;;;9.00;99.90;;;;;;10364459;28;19935;-81
2021/05/27 00:14:33;;;;;;;;;;;9.10;99.90;;;;;;10364814;28;20017;-81
2021/05/27 00:19:35;;;;;;;;;;;9.10;99.90;;;;;;10327858;28;20016;-81
2021/05/27 00:24:37;;;;;;;;;;;9.20;99.90;;;;;;10365284;28;19968;-81
2021/05/27 00:29:40;;;;;;;;;;;9.20;99.90;;;;;;10338138;28;19926;-81
2021/05/27 00:34:41;;;;;;;;;;;9.20;99.90;;;;;;10344876;28;19976;-81
2021/05/27 00:39:43;;;;;;;;;;;9.20;99.90;;;;;;10347262;28;19925;-81
2021/05/27 00:44:56;;;;;;;;;;;9.20;99.90;;;;;;10332709;28;20390;-81
2021/05/27 00:49:58;;;;;;;;;;;9.20;99.90;;;;;;10363677;28;20019;-81
2021/05/27 00:55:01;;;;;;;;;;;9.20;99.90;;;;;;10331980;28;19953;-81
2021/05/27 01:00:08;;;;;;;;;;;9.20;99.90;;;;;;10362808;28;19976;-81
2021/05/27 01:05:11;;;;;;;;;;;9.30;99.90;;;;;;10370038;28;19952;-81
2021/05/27 01:10:13;;;;;;;;;;;9.30;99.90;;;;;;10344479;28;20008;-81
2021/05/27 01:15:34;;;;;;;;;;;9.30;99.90;;;;;;10339245;28;20463;-81
2021/05/27 01:20:36;;;;;;;;;;;9.30;99.90;;;;;;10367386;28;19981;-81
2021/05/27 01:25:39;;;;;;;;;;;9.30;99.90;;;;;;10342434;28;19929;-81
2021/05/27 01:30:41;;;;;;;;;;;9.20;99.90;;;;;;10366572;28;20041;-81
2021/05/27 01:35:43;;;;;;;;;;;9.30;99.90;;;;;;10352023;28;20272;-81
2021/05/27 01:40:45;;;;;;;;;;;9.30;99.90;;;;;;10355510;28;20372;-81
2021/05/27 01:45:47;;;;;;;;;;;9.30;99.90;;;;;;10352763;28;20488;-81
2021/05/27 01:50:49;;;;;;;;;;;9.30;99.90;;;;;;10347694;28;19925;-81
2021/05/27 01:55:51;;;;;;;;;;;9.40;99.90;;;;;;10349420;28;19957;-81
2021/05/27 02:00:53;;;;;;;;;;;9.40;99.90;;;;;;10370435;28;20295;-81
2021/05/27 02:05:55;;;;;;;;;;;9.40;99.90;;;;;;10360473;28;19979;-81
2021/05/27 02:10:57;;;;;;;;;;;9.40;99.90;;;;;;10362968;28;19929;-81
2021/05/27 02:15:58;;;;;;;;;;;9.40;99.90;;;;;;10366741;28;19977;-81
2021/05/27 02:21:00;;;;;;;;;;;9.40;99.90;;;;;;10357473;28;20387;-81
2021/05/27 02:26:02;;;;;;;;;;;9.40;99.90;;;;;;10362153;28;19926;-81
2021/05/27 02:31:04;;;;;;;;;;;9.40;99.90;;;;;;10365212;28;20069;-81
2021/05/27 02:36:06;;;;;;;;;;;9.40;99.90;;;;;;10369861;28;20306;-81
2021/05/27 02:41:09;;;;;;;;;;;9.40;99.90;;;;;;10345861;28;19926;-82
2021/05/27 02:46:10;;;;;;;;;;;9.40;99.90;;;;;;10371355;28;19941;-81
2021/05/27 02:51:23;;;;;;;;;;;9.40;99.90;;;;;;10335928;28;19929;-82
2021/05/27 02:56:25;;;;;;;;;;;9.40;99.90;;;;;;10373867;28;20337;-82
2021/05/27 03:01:27;;;;;;;;;;;9.40;99.90;;;;;;10376322;28;19926;-81
2021/05/27 03:06:29;;;;;;;;;;;9.40;99.90;;;;;;10368018;28;19960;-82
2021/05/27 03:11:31;;;;;;;;;;;9.40;99.90;;;;;;10369585;28;19961;-82
2021/05/27 03:16:33;;;;;;;;;;;9.30;99.90;;;;;;10367647;28;19925;-81
2021/05/27 03:21:35;;;;;;;;;;;9.20;99.90;;;;;;10339031;28;20029;-82
2021/05/27 03:26:37;;;;;;;;;;;9.30;99.90;;;;;;10327499;28;19961;-82
2021/05/27 03:31:39;;;;;;;;;;;9.20;99.90;;;;;;10335763;28;19964;-82
2021/05/27 03:36:41;;;;;;;;;;;9.20;99.90;;;;;;10346180;28;19929;-82
2021/05/27 03:41:42;;;;;;;;;;;9.20;99.90;;;;;;10355656;28;19979;-82
2021/05/27 03:46:44;;;;;;;;;;;9.20;99.90;;;;;;10367670;28;20290;-82
2021/05/27 03:51:46;;;;;;;;;;;9.20;99.90;;;;;;10326742;28;19926;-82
2021/05/27 03:56:48;;;;;;;;;;;9.20;99.90;;;;;;10340723;28;19926;-82
2021/05/27 04:01:50;;;;;;;;;;;9.20;99.90;;;;;;10341478;28;20009;-82
2021/05/27 04:12:45;;;;;;;;;;;9.20;99.90;;;;;;10333453;28;20287;-82
2021/05/27 04:17:48;;;;;;;;;;;9.10;99.90;;;;;;10367871;28;20612;-82
2021/05/27 04:22:50;;;;;;;;;;;9.20;99.90;;;;;;10368451;28;19968;-82
2021/05/27 04:27:53;;;;;;;;;;;9.20;99.90;;;;;;10368345;28;19980;-82
2021/05/27 04:33:01;;;;;;;;;;;9.20;99.90;;;;;;10367474;28;20016;-82
2021/05/27 04:38:08;;;;;;;;;;;9.30;99.90;;;;;;10360817;28;19926;-82
2021/05/27 04:43:10;;;;;;;;;;;9.30;99.90;;;;;;10371798;28;19926;-82
2021/05/27 04:48:13;;;;;;;;;;;9.40;99.90;;;;;;10381885;28;19937;-82
2021/05/27 04:53:19;;;;;;;;;;;9.70;99.90;;;;;;10374245;28;20409;-82
2021/05/27 04:58:21;;;;;;;;;;;9.90;99.90;;;;;;10355966;28;19961;-82
2021/05/27 05:03:23;;;;;;;;;;;9.90;99.90;;;;;;10373929;28;19932;-82
2021/05/27 05:08:25;;;;;;;;;;;9.90;99.90;;;;;;10348274;28;19972;-82
2021/05/27 05:13:26;;;;;;;;;;;10.00;99.90;;;;;;10372879;28;20732;-82
2021/05/27 05:18:28;;;;;;;;;;;10.10;99.90;;;;;;10373417;28;19925;-82
2021/05/27 05:23:30;;;;;;;;;;;10.00;99.90;;;;;;10372621;28;20016;-82
2021/05/27 05:28:32;;;;;;;;;;;9.90;99.90;;;;;;10373085;28;19929;-82
2021/05/27 05:33:34;;;;;;;;;;;9.90;99.90;;;;;;10372177;28;20431;-82
2021/05/27 05:38:36;;;;;;;;;;;9.90;99.90;;;;;;10373245;28;19972;-82
2021/05/27 05:43:37;;;;;;;;;;;10.10;99.90;;;;;;10369468;28;20294;-82
2021/05/27 05:48:39;;;;;;;;;;;10.00;99.90;;;;;;10372050;28;20005;-82
2021/05/27 05:53:41;;;;;;;;;;;10.10;99.90;;;;;;10368226;28;20024;-82
2021/05/27 05:58:43;;;;;;;;;;;10.40;99.90;;;;;;10373116;28;19960;-83
2021/05/27 06:03:45;;;;;;;;;;;10.60;99.90;;;;;;10372074;28;19980;-83
2021/05/27 06:08:47;;;;;;;;;;;11.00;99.90;;;;;;10358744;28;19968;-83
2021/05/27 06:13:48;;;;;;;;;;;11.00;99.90;;;;;;10371613;28;19925;-82
2021/05/27 06:18:50;;;;;;;;;;;10.90;99.90;;;;;;10339692;28;20850;-83
2021/05/27 06:23:52;;;;;;;;;;;10.80;99.90;;;;;;10370848;28;19992;-83
2021/05/27 06:28:54;;;;;;;;;;;10.60;99.90;;;;;;10371411;28;19971;-82
2021/05/27 06:33:56;;;;;;;;;;;10.50;99.90;;;;;;10370365;28;20032;-82
2021/05/27 06:38:58;;;;;;;;;;;10.60;99.90;;;;;;10369810;28;19925;-83
2021/05/27 06:44:00;;;;;;;;;;;10.90;99.90;;;;;;10363617;28;19933;-82
2021/05/27 06:49:02;;;;;;;;;;;10.90;99.90;;;;;;10344738;28;19965;-82
2021/05/27 06:54:03;;;;;;;;;;;11.10;99.90;;;;;;10370159;28;20452;-82
2021/05/27 06:59:05;;;;;;;;;;;11.20;99.90;;;;;;10367374;28;20108;-82
2021/05/27 07:04:07;;;;;;;;;;;11.40;99.90;;;;;;10369196;28;19929;-83
2021/05/27 07:09:11;;;;;;;;;;;11.70;99.90;;;;;;10369850;28;20015;-82
2021/05/27 07:14:12;;;;;;;;;;;11.90;99.90;;;;;;10371504;28;19932;-82
2021/05/27 07:19:14;;;;;;;;;;;11.80;99.90;;;;;;10384122;28;19932;-82
2021/05/27 07:24:16;;;;;;;;;;;11.70;99.90;;;;;;10369063;28;20330;-82
2021/05/27 07:29:18;;;;;;;;;;;11.50;99.90;;;;;;10347471;28;19968;-82
2021/05/27 07:34:20;;;;;;;;;;;11.40;99.90;;;;;;10349669;28;20630;-82
2021/05/27 07:39:22;;;;;;;;;;;11.30;99.90;;;;;;10347175;28;20364;-82
2021/05/27 07:44:23;;;;;;;;;;;11.40;99.90;;;;;;10366134;28;19980;-82
2021/05/27 07:49:25;;;;;;;;;;;11.40;99.90;;;;;;10344593;28;19965;-83
2021/05/27 07:54:27;;;;;;;;;;;11.40;99.90;;;;;;10365675;28;20437;-82
2021/05/27 07:59:29;;;;;;;;;;;11.40;99.90;;;;;;10332742;28;20016;-82
2021/05/27 08:04:32;;;;;;;;;;;11.50;99.90;;;;;;10366888;28;19929;-82
2021/05/27 08:09:33;;;;;;;;;;;12.00;99.90;;;;;;10359243;28;20449;-82
2021/05/27 08:14:36;;;;;;;;;;;12.30;99.90;;;;;;10374666;28;19932;-83
2021/05/27 08:19:38;;;;;;;;;;;12.70;99.90;;;;;;10376404;28;20425;-83
2021/05/27 08:24:40;;;;;;;;;;;13.10;99.90;;;;;;10374795;28;20394;-82
2021/05/27 08:29:42;;;;;;;;;;;13.40;99.90;;;;;;10376493;28;20421;-82
2021/05/27 08:34:46;;;;;;;;;;;13.40;99.90;;;;;;10355733;28;20012;-81
2021/05/27 08:39:48;;;;;;;;;;;14.00;99.90;;;;;;10355008;28;19930;-83
2021/05/27 08:44:51;;;;;;;;;;;14.80;99.90;;;;;;10372167;28;19963;-82
2021/05/27 08:49:55;;;;;;;;;;;15.30;99.90;;;;;;10352842;28;19984;-84
2021/05/27 08:54:57;;;;;;;;;;;15.60;99.90;;;;;;10367822;28;19929;-81
2021/05/27 08:59:59;;;;;;;;;;;15.30;99.90;;;;;;10367723;28;19971;-81
2021/05/27 09:05:14;;;;;;;;;;;14.60;99.90;;;;;;10372371;28;19925;-81
2021/05/27 09:10:15;;;;;;;;;;;14.50;99.90;;;;;;10369853;28;19953;-81
2021/05/27 09:15:17;;;;;;;;;;;14.10;99.90;;;;;;10360156;28;20326;-80
2021/05/27 09:20:23;;;;;;;;;;;13.60;99.90;;;;;;10359019;28;19925;-80
2021/05/27 09:25:27;;;;;;;;;;;14.10;99.90;;;;;;10368117;28;19965;-81
2021/05/27 09:30:47;;;;;;;;;;;15.20;99.90;;;;;;10369338;28;19925;-81
2021/05/27 09:35:58;;;;;;;;;;;15.20;99.90;;;;;;10369115;28;19929;-82
2021/05/27 09:41:13;;;;;;;;;;;15.80;99.90;;;;;;10357020;28;19925;-82
2021/05/27 09:46:15;;;;;;;;;;;15.90;99.90;;;;;;10370579;28;19926;-80
2021/05/27 09:51:26;;;;;;;;;;;15.90;99.90;;;;;;10363247;28;20028;-79
2021/05/27 09:56:35;;;;;;;;;;;15.40;99.90;;;;;;10371788;28;19926;-80
2021/05/27 10:02:01;;;;;;;;;;;15.00;99.90;;;;;;10365769;28;19980;-81
2021/05/27 10:07:04;;;;;;;;;;;14.60;99.90;;;;;;10331788;28;19930;-88
2021/05/27 10:12:20;;;;;;;;;;;13.90;99.90;;;;;;10341489;28;19933;-91
2021/05/27 10:18:13;;;;;;;;;;;13.30;99.90;;;;;;10274523;28;19936;-92
2021/05/27 10:23:20;;;;;;;;;;;13.00;99.90;;;;;;10276815;28;19933;-84
2021/05/27 10:28:24;;;;;;;;;;;13.30;99.90;;;;;;10269785;28;20479;-85
2021/05/27 10:33:26;;;;;;;;;;;13.60;99.90;;;;;;10295268;28;20032;-85
2021/05/27 10:38:41;;;;;;;;;;;13.60;99.90;;;;;;10362668;28;19925;-82
2021/05/27 10:44:05;;;;;;;;;;;13.80;99.90;;;;;;10368618;28;20350;-82
2021/05/27 10:49:11;;;;;;;;;;;13.90;99.90;;;;;;10352210;28;19972;-88
2021/05/27 17:26:36;;;;;;;;;;;13.40;99.90;;;;;;10414264;28;20312;-84
2021/05/27 18:33:58;;;;;;;;;;;12.50;99.90;;;;;;10350834;28;20344;-82
2021/05/27 18:39:55;;;;;;;;;;;12.50;99.90;;;;;;10369392;28;19925;-82
2021/05/27 18:45:12;;;;;;;;;;;12.50;99.90;;;;;;10393987;28;20597;-82
2021/05/27 18:50:14;;;;;;;;;;;12.30;99.90;;;;;;10420425;28;19983;-83
2021/05/27 18:55:16;;;;;;;;;;;12.30;99.90;;;;;;10387077;28;19929;-82
2021/05/27 19:00:19;;;;;;;;;;;12.20;99.90;;;;;;10430622;28;19925;-82
2021/05/27 19:05:20;;;;;;;;;;;11.90;99.90;;;;;;10414895;28;20540;-83
2021/05/27 19:10:22;;;;;;;;;;;11.70;99.90;;;;;;10406179;28;20406;-83
2021/05/27 19:15:25;;;;;;;;;;;11.70;99.90;;;;;;10380066;28;19979;-81
2021/05/27 19:20:27;;;;;;;;;;;11.60;99.90;;;;;;10408648;28;19929;-82
2021/05/27 19:25:29;;;;;;;;;;;11.50;99.90;;;;;;10407043;28;19925;-82
2021/05/27 19:30:31;;;;;;;;;;;11.50;99.90;;;;;;10386704;28;19925;-81
2021/05/27 19:35:33;;;;;;;;;;;11.40;99.90;;;;;;10386211;28;20459;-82
2021/05/27 19:40:35;;;;;;;;;;;11.30;99.90;;;;;;10388427;28;19933;-81
2021/05/27 19:45:37;;;;;;;;;;;11.10;99.90;;;;;;10398137;28;19975;-81
2021/05/27 19:50:39;;;;;;;;;;;11.10;99.90;;;;;;10381388;28;19979;-81
2021/05/27 19:55:42;;;;;;;;;;;11.00;99.90;;;;;;10377351;28;19929;-82
2021/05/27 20:00:44;;;;;;;;;;;10.90;99.90;;;;;;10387899;28;19925;-81
2021/05/27 20:05:46;;;;;;;;;;;10.80;99.90;;;;;;10392957;28;19925;-81
2021/05/27 20:10:48;;;;;;;;;;;10.80;99.90;;;;;;10402079;28;19925;-81
2021/05/27 20:15:50;;;;;;;;;;;10.80;99.90;;;;;;10407975;28;19979;-81
2021/05/27 20:20:52;;;;;;;;;;;10.80;99.90;;;;;;10391265;28;20036;-81
2021/05/27 20:25:54;;;;;;;;;;;10.80;99.90;;;;;;10392707;28;20370;-81
2021/05/27 20:30:56;;;;;;;;;;;10.80;99.90;;;;;;10391538;28;19925;-81
2021/05/27 20:36:02;;;;;;;;;;;10.70;99.90;;;;;;10416398;28;19978;-81
2021/05/27 20:41:04;;;;;;;;;;;10.70;99.90;;;;;;10434353;28;20478;-81
2021/05/27 20:46:08;;;;;;;;;;;10.70;99.90;;;;;;10418855;28;20298;-81
2021/05/27 20:51:10;;;;;;;;;;;10.60;99.90;;;;;;10404005;28;20024;-81
2021/05/27 20:56:12;;;;;;;;;;;10.70;99.90;;;;;;10419900;28;19971;-81
2021/05/27 21:01:14;;;;;;;;;;;10.70;99.90;;;;;;10455328;28;19999;-81
2021/05/27 21:06:15;;;;;;;;;;;10.60;99.90;;;;;;10449601;28;20382;-81
2021/05/27 21:11:17;;;;;;;;;;;10.60;99.90;;;;;;10417782;28;20382;-81
2021/05/27 21:16:19;;;;;;;;;;;10.60;99.90;;;;;;10431900;28;20282;-81
2021/05/27 21:21:21;;;;;;;;;;;10.70;99.90;;;;;;10411747;28;19979;-81
2021/05/27 21:26:23;;;;;;;;;;;10.60;99.90;;;;;;10374390;28;20002;-81
2021/05/27 21:31:25;;;;;;;;;;;10.60;99.90;;;;;;10412845;28;20374;-81
2021/05/27 21:36:27;;;;;;;;;;;10.50;99.90;;;;;;10417143;28;19925;-81
2021/05/27 21:41:29;;;;;;;;;;;10.40;99.90;;;;;;10384676;28;19925;-81
2021/05/27 21:46:31;;;;;;;;;;;10.20;99.90;;;;;;10411587;28;19956;-81
2021/05/27 21:51:33;;;;;;;;;;;10.10;99.90;;;;;;10435554;28;19980;-81
2021/05/27 21:56:35;;;;;;;;;;;10.00;99.90;;;;;;10412350;28;20394;-81
2021/05/27 22:01:37;;;;;;;;;;;9.90;99.90;;;;;;10355040;28;20136;-81
2021/05/27 22:06:38;;;;;;;;;;;9.90;99.90;;;;;;10421552;28;19956;-81
2021/05/27 22:11:40;;;;;;;;;;;9.80;99.90;;;;;;10409598;28;20418;-82
2021/05/27 22:16:42;;;;;;;;;;;9.70;99.90;;;;;;10399830;28;19979;-81
2021/05/27 22:21:44;;;;;;;;;;;9.60;99.90;;;;;;10401427;28;19926;-81
2021/05/27 22:26:46;;;;;;;;;;;9.50;99.90;;;;;;10405487;28;20012;-81
2021/05/27 22:31:48;;;;;;;;;;;9.40;99.90;;;;;;10401713;28;19925;-81
2021/05/27 22:36:50;;;;;;;;;;;9.40;99.90;;;;;;10415005;28;20359;-81
2021/05/27 22:41:52;;;;;;;;;;;9.30;99.90;;;;;;10378836;28;20549;-81
2021/05/27 22:46:54;;;;;;;;;;;9.20;99.90;;;;;;10423995;28;19933;-81
2021/05/27 22:51:55;;;;;;;;;;;9.20;99.90;;;;;;10353929;28;19952;-81
2021/05/27 22:56:57;;;;;;;;;;;9.40;99.90;;;;;;10418861;28;20382;-81
2021/05/27 23:01:59;;;;;;;;;;;9.50;99.90;;;;;;10393560;28;19969;-81
2021/05/27 23:07:01;;;;;;;;;;;9.70;99.90;;;;;;10404342;28;20017;-81
2021/05/27 23:12:03;;;;;;;;;;;9.80;99.90;;;;;;10383244;28;19929;-81
2021/05/27 23:17:05;;;;;;;;;;;10.00;99.90;;;;;;10409491;28;19976;-81
2021/05/27 23:22:07;;;;;;;;;;;10.00;99.90;;;;;;10408496;28;19967;-81
2021/05/27 23:27:09;;;;;;;;;;;9.90;99.90;;;;;;10390752;28;19925;-81
2021/05/27 23:32:11;;;;;;;;;;;9.70;99.90;;;;;;10359887;28;19972;-81
2021/05/27 23:37:13;;;;;;;;;;;9.50;99.90;;;;;;10405016;28;19925;-81
2021/05/27 23:42:15;;;;;;;;;;;9.30;99.90;;;;;;10399103;28;19979;-81
2021/05/27 23:47:16;;;;;;;;;;;9.40;99.90;;;;;;10443309;28;19925;-81
2021/05/27 23:52:18;;;;;;;;;;;9.50;99.90;;;;;;10421343;28;19925;-82
2021/05/27 23:57:20;;;;;;;;;;;9.60;99.90;;;;;;10414503;28;20428;-82
